Time;durP1;ratioP1;P1;durP2;ratioP2;P2;SDS_P1;SDS_P2;PMS_P1;PMS_P2;Temp;Humidity;BMP_temperature;BMP_pressure;BME280_temperature;BME280_humidity;BME280_pressure;Samples;Min_cycle;Max_cycle;Signal;HPM_P1;HPM_P2
2022/02/19 00:00:23;;;;;;;12.00;2.67;;;;;;;6.75;51.08;98282.47;2619374;39;20415;-64
2022/02/19 00:02:56;;;;;;;11.43;2.45;;;;;;;6.69;51.75;98270.88;2621274;54;20050;-65
2022/02/19 00:05:26;;;;;;;10.93;2.90;;;;;;;6.68;51.90;98280.56;2622513;47;20041;-63
2022/02/19 00:07:56;;;;;;;11.02;3.03;;;;;;;6.70;52.01;98296.16;2618662;54;20033;-62
2022/02/19 00:10:26;;;;;;;8.02;2.22;;;;;;;6.73;52.29;98282.66;2618792;54;20027;-63
2022/02/19 00:12:55;;;;;;;14.55;2.90;;;;;;;6.75;52.63;98274.59;2618573;54;20185;-62
2022/02/19 00:15:25;;;;;;;21.52;5.15;;;;;;;6.72;53.14;98272.31;2618401;54;20019;-63
2022/02/19 00:17:57;;;;;;;10.75;2.60;;;;;;;6.68;53.59;98290.25;2618147;54;20038;-65
2022/02/19 00:20:30;;;;;;;13.25;2.50;;;;;;;6.66;53.86;98292.25;2618728;54;20038;-65
2022/02/19 00:23:00;;;;;;;10.90;2.58;;;;;;;6.68;53.51;98298.94;2618236;47;20030;-65
2022/02/19 00:25:30;;;;;;;14.05;2.88;;;;;;;6.66;53.62;98311.47;2618029;54;20049;-66
2022/02/19 00:28:00;;;;;;;14.05;2.47;;;;;;;6.66;52.91;98295.69;2619152;54;20028;-65
2022/02/19 00:30:31;;;;;;;11.30;2.67;;;;;;;6.63;53.32;98311.81;2618560;47;20034;-65
2022/02/19 00:33:04;;;;;;;12.02;3.00;;;;;;;6.62;53.33;98323.31;2619257;54;20030;-65
2022/02/19 00:35:34;;;;;;;9.82;2.28;;;;;;;6.63;53.63;98297.88;2618912;39;20422;-65
2022/02/19 00:38:03;;;;;;;12.82;3.38;;;;;;;6.63;53.70;98329.38;2618915;54;20031;-65
2022/02/19 00:40:33;;;;;;;8.07;1.80;;;;;;;6.62;52.99;98291.00;2620699;47;20031;-65
2022/02/19 00:43:03;;;;;;;12.52;2.33;;;;;;;6.61;52.50;98332.19;2624268;51;20046;-65
2022/02/19 00:45:33;;;;;;;12.38;2.47;;;;;;;6.61;52.42;98333.97;2623771;54;20026;-65
2022/02/19 00:48:07;;;;;;;15.25;3.00;;;;;;;6.58;52.82;98343.06;2623506;54;20041;-65
2022/02/19 00:50:38;;;;;;;14.40;2.92;;;;;;;6.62;52.67;98340.88;2623763;54;20110;-66
2022/02/19 00:53:08;;;;;;;11.38;2.70;;;;;;;6.60;52.61;98348.94;2625506;39;20598;-66
2022/02/19 00:55:40;;;;;;;9.35;2.13;;;;;;;6.59;51.57;98362.25;2623137;54;20034;-66
2022/02/19 00:58:10;;;;;;;9.82;2.97;;;;;;;6.54;51.41;98369.84;2623864;39;20771;-66
2022/02/19 01:00:40;;;;;;;14.57;3.08;;;;;;;6.52;51.89;98374.44;2622897;47;20041;-66
2022/02/19 01:03:17;;;;;;;8.30;2.03;;;;;;;6.53;52.04;98357.69;2619112;54;20038;-64
2022/02/19 01:05:46;;;;;;;14.30;2.70;;;;;;;6.53;52.15;98352.44;2618301;54;20041;-64
2022/02/19 01:08:16;;;;;;;10.95;2.42;;;;;;;6.52;51.99;98364.75;2619703;54;20038;-65
2022/02/19 01:10:45;;;;;;;12.00;2.78;;;;;;;6.49;52.00;98377.41;2619967;54;20029;-64
2022/02/19 01:13:15;;;;;;;11.13;2.55;;;;;;;6.50;52.10;98381.69;2619959;31;20478;-63
2022/02/19 01:15:46;;;;;;;12.02;3.25;;;;;;;6.45;51.93;98380.44;2619320;54;20037;-64
2022/02/19 01:18:18;;;;;;;14.52;4.22;;;;;;;6.45;51.91;98388.31;2620362;39;20444;-64
2022/02/19 01:20:47;;;;;;;13.73;2.83;;;;;;;6.41;51.84;98391.47;2619782;54;20046;-64
2022/02/19 01:23:17;;;;;;;16.98;3.08;;;;;;;6.38;51.52;98392.63;2622695;54;20572;-64
2022/02/19 01:25:47;;;;;;;18.35;3.28;;;;;;;6.33;51.87;98391.53;2623779;54;20026;-64
2022/02/19 01:28:16;;;;;;;19.58;4.00;;;;;;;6.32;52.15;98411.69;2622260;54;20081;-63
2022/02/19 01:30:46;;;;;;;14.63;2.78;;;;;;;6.28;51.85;98409.56;2621559;54;20033;-63
2022/02/19 01:33:20;;;;;;;12.32;3.05;;;;;;;6.30;51.98;98418.94;2622309;54;20034;-64
2022/02/19 01:35:50;;;;;;;15.38;3.00;;;;;;;6.33;51.86;98415.97;2622541;54;20021;-63
2022/02/19 01:38:24;;;;;;;17.38;3.95;;;;;;;6.28;51.79;98422.69;2622549;47;20150;-63
2022/02/19 01:40:55;;;;;;;8.00;2.85;;;;;;;6.29;51.73;98475.06;2622313;54;20072;-63
2022/02/19 01:43:25;;;;;;;13.73;2.88;;;;;;;6.30;51.88;98433.88;2621353;47;20034;-63
2022/02/19 01:45:55;;;;;;;12.75;3.95;;;;;;;6.29;51.90;98430.44;2619780;47;20030;-62
2022/02/19 01:48:28;;;;;;;10.40;2.55;;;;;;;6.26;52.06;98457.00;2619600;47;20604;-63
2022/02/19 01:50:58;;;;;;;8.73;2.38;;;;;;;6.23;51.89;98436.34;2620131;54;20093;-64
2022/02/19 01:53:28;;;;;;;14.60;3.08;;;;;;;6.23;51.95;98425.84;2620301;54;20065;-64
2022/02/19 01:56:04;;;;;;;17.08;3.97;;;;;;;6.19;52.10;98440.31;2620376;47;20080;-64
2022/02/19 01:58:46;;;;;;;13.75;2.58;;;;;;;6.14;50.95;98432.16;2620983;47;20102;-64
2022/02/19 02:01:24;;;;;;;19.52;2.40;;;;;;;6.11;51.40;98424.63;2622865;54;20050;-63
2022/02/19 02:04:16;;;;;;;17.00;2.90;;;;;;;6.11;51.54;98437.75;2622692;54;20056;-64
2022/02/19 02:06:46;;;;;;;17.58;3.08;;;;;;;6.06;51.53;98446.13;2623140;47;20052;-64
2022/02/19 02:09:17;;;;;;;15.10;3.15;;;;;;;6.07;52.11;98455.63;2623432;51;20034;-63
2022/02/19 02:11:47;;;;;;;12.20;2.15;;;;;;;6.01;52.34;98458.16;2624192;47;20038;-63
2022/02/19 02:14:17;;;;;;;12.35;2.70;;;;;;;5.96;52.24;98461.28;2624150;46;20034;-63
2022/02/19 02:17:09;;;;;;;12.75;2.80;;;;;;;5.95;52.48;98467.50;2623807;54;20098;-64
2022/02/19 02:19:42;;;;;;;12.82;2.92;;;;;;;5.91;52.59;98469.63;2624048;54;20034;-63
2022/02/19 02:22:20;;;;;;;13.60;2.47;;;;;;;5.87;52.74;98475.38;2623133;54;20158;-64
2022/02/19 02:24:51;;;;;;;14.45;2.78;;;;;;;5.84;52.65;98471.31;2622785;54;20114;-64
2022/02/19 02:27:32;;;;;;;8.68;2.53;;;;;;;5.79;52.51;98470.97;2623409;46;20032;-63
2022/02/19 02:30:02;;;;;;;10.65;2.25;;;;;;;5.74;53.24;98475.91;2623646;54;20078;-64
2022/02/19 02:32:39;;;;;;;10.23;2.40;;;;;;;5.74;53.26;98477.72;2622995;46;20039;-63
2022/02/19 02:35:10;;;;;;;14.40;2.35;;;;;;;5.75;53.67;98474.94;2623400;54;20023;-67
2022/02/19 02:37:47;;;;;;;13.55;2.63;;;;;;;5.75;52.99;98480.16;2623218;54;20022;-64
2022/02/19 02:40:18;;;;;;;8.00;2.17;;;;;;;5.72;53.54;98485.78;2623156;54;20026;-64
2022/02/19 02:42:48;;;;;;;11.98;2.83;;;;;;;5.69;53.32;98481.69;2622976;54;20034;-64
2022/02/19 02:45:17;;;;;;;15.45;3.03;;;;;;;5.63;53.82;98505.97;2622541;54;20038;-64
2022/02/19 02:48:13;;;;;;;13.10;2.33;;;;;;;5.59;54.26;98509.91;2622804;47;20027;-65
2022/02/19 02:50:42;;;;;;;7.88;2.35;;;;;;;5.56;54.30;98491.88;2623327;54;20034;-62
2022/02/19 02:53:36;;;;;;;11.63;2.45;;;;;;;5.58;54.44;98512.69;2623067;47;20031;-65
2022/02/19 02:56:07;;;;;;;12.17;3.03;;;;;;;5.57;54.60;98498.75;2622665;54;20029;-64
2022/02/19 02:58:37;;;;;;;9.23;2.50;;;;;;;5.54;54.56;98496.47;2623621;54;20877;-65
2022/02/19 03:01:10;;;;;;;8.07;2.20;;;;;;;5.54;54.64;98503.53;2625855;47;20038;-62
2022/02/19 03:03:42;;;;;;;14.55;2.97;;;;;;;5.51;54.88;98512.56;2626235;54;20025;-63
2022/02/19 03:06:15;;;;;;;14.23;2.70;;;;;;;5.49;55.25;98497.97;2625641;54;20030;-63
2022/02/19 03:08:52;;;;;;;14.57;3.25;;;;;;;5.51;55.10;98519.56;2624855;47;20037;-63
2022/02/19 03:11:21;;;;;;;9.32;2.35;;;;;;;5.51;55.41;98522.19;2623919;54;20030;-63
2022/02/19 03:13:51;;;;;;;12.30;2.60;;;;;;;5.48;55.14;98526.00;2623491;47;20033;-63
2022/02/19 03:16:22;;;;;;;5.57;1.77;;;;;;;5.50;54.95;98528.44;2623495;54;20030;-63
2022/02/19 03:18:51;;;;;;;9.63;2.55;;;;;;;5.44;55.11;98541.22;2624694;39;20490;-63
2022/02/19 03:21:21;;;;;;;9.57;2.10;;;;;;;5.42;55.23;98548.44;2624340;54;20037;-63
2022/02/19 03:23:55;;;;;;;13.93;2.67;;;;;;;5.42;54.86;98560.72;2624654;54;20057;-62
2022/02/19 03:26:26;;;;;;;11.50;2.90;;;;;;;5.43;54.83;98554.53;2624748;54;20034;-63
2022/02/19 03:28:57;;;;;;;10.95;2.67;;;;;;;5.41;55.47;98565.16;2625592;31;20556;-63
2022/02/19 03:31:27;;;;;;;8.45;2.10;;;;;;;5.39;55.32;98569.75;2622153;54;20081;-62
2022/02/19 03:34:02;;;;;;;11.45;3.33;;;;;;;5.41;55.45;98567.78;2623134;47;20026;-63
2022/02/19 03:36:34;;;;;;;11.77;2.00;;;;;;;5.32;55.28;98588.91;2622985;51;20114;-64
2022/02/19 03:39:07;;;;;;;13.73;2.60;;;;;;;5.27;55.79;98563.22;2623428;46;20106;-63
2022/02/19 03:41:38;;;;;;;10.38;2.60;;;;;;;5.27;54.71;98589.41;2625469;54;20045;-63
2022/02/19 03:44:09;;;;;;;8.88;2.00;;;;;;;5.23;55.16;98588.09;2622121;54;20026;-64
2022/02/19 03:46:47;;;;;;;12.35;2.05;;;;;;;5.22;54.96;98597.78;2620716;54;20026;-63
2022/02/19 03:49:26;;;;;;;15.52;2.42;;;;;;;5.19;55.15;98599.91;2621413;54;20037;-63
2022/02/19 03:51:56;;;;;;;9.27;2.63;;;;;;;5.15;55.29;98604.66;2621460;54;20110;-64
2022/02/19 03:54:29;;;;;;;11.23;2.45;;;;;;;5.16;55.41;98614.13;2622000;47;20150;-63
2022/02/19 03:56:58;;;;;;;13.88;2.65;;;;;;;5.14;55.95;98617.88;2624506;54;20046;-63
2022/02/19 03:59:28;;;;;;;9.60;2.35;;;;;;;5.11;55.71;98636.56;2622772;47;20022;-62
2022/02/19 04:02:00;;;;;;;9.65;2.42;;;;;;;5.08;55.91;98644.75;2623900;54;20022;-63
2022/02/19 04:04:34;;;;;;;15.25;3.00;;;;;;;5.08;55.76;98647.38;2623150;54;20033;-64
2022/02/19 04:07:04;;;;;;;11.05;1.70;;;;;;;5.09;55.88;98646.38;2624308;47;20038;-63
2022/02/19 04:09:51;;;;;;;9.07;2.10;;;;;;;5.08;56.13;98663.09;2624537;54;20027;-64
2022/02/19 04:12:22;;;;;;;6.68;2.00;;;;;;;5.06;55.98;98667.66;2624336;54;20027;-63
2022/02/19 04:14:56;;;;;;;9.85;2.30;;;;;;;5.02;55.84;98663.72;2622591;47;20034;-64
2022/02/19 04:17:26;;;;;;;17.20;2.63;;;;;;;4.98;56.10;98676.34;2622593;54;20029;-63
2022/02/19 04:19:55;;;;;;;7.47;1.67;;;;;;;4.99;56.30;98683.22;2622943;54;20049;-64
2022/02/19 04:22:26;;;;;;;8.27;1.98;;;;;;;4.95;56.25;98695.81;2623048;54;20027;-64
2022/02/19 04:24:59;;;;;;;11.35;2.17;;;;;;;4.94;56.29;98695.97;2622782;54;20034;-63
2022/02/19 04:27:32;;;;;;;14.57;3.40;;;;;;;4.94;56.45;98698.59;2621384;47;20026;-64
2022/02/19 04:30:03;;;;;;;12.77;2.47;;;;;;;4.95;55.88;98706.28;2620667;47;20034;-64
2022/02/19 04:32:34;;;;;;;10.60;2.25;;;;;;;4.93;56.28;98715.28;2621943;54;20033;-63
2022/02/19 04:35:04;;;;;;;11.70;2.63;;;;;;;4.94;56.26;98719.56;2622273;47;20026;-64
2022/02/19 04:37:39;;;;;;;8.43;1.90;;;;;;;5.00;56.26;98725.94;2622044;54;20034;-65
2022/02/19 04:40:14;;;;;;;9.73;2.72;;;;;;;5.02;55.87;98723.97;2620693;54;20022;-65
2022/02/19 04:42:44;;;;;;;5.28;1.90;;;;;;;5.02;56.53;98726.59;2620434;47;20043;-62
2022/02/19 04:45:20;;;;;;;7.90;1.48;;;;;;;5.03;56.33;98730.88;2620452;54;20061;-63
2022/02/19 04:47:55;;;;;;;14.27;3.17;;;;;;;4.97;56.73;98738.38;2620104;47;20034;-64
2022/02/19 04:50:26;;;;;;;8.50;2.58;;;;;;;4.99;56.84;98734.81;2620007;54;20030;-64
2022/02/19 04:52:58;;;;;;;11.93;2.30;;;;;;;4.99;56.49;98740.84;2620257;54;20022;-63
2022/02/19 04:55:37;;;;;;;10.60;2.00;;;;;;;4.97;56.49;98741.00;2620674;47;20032;-63
2022/02/19 04:58:16;;;;;;;12.60;2.47;;;;;;;4.94;56.97;98759.66;2617854;54;20034;-65
2022/02/19 05:00:45;;;;;;;9.98;2.08;;;;;;;4.90;56.79;98753.09;2617576;47;20125;-63
2022/02/19 05:03:38;;;;;;;9.98;2.28;;;;;;;4.85;56.91;98749.28;2618195;47;20030;-64
2022/02/19 05:06:23;;;;;;;13.65;2.10;;;;;;;4.84;56.88;98752.91;2617576;47;20020;-64
2022/02/19 05:09:01;;;;;;;7.90;1.98;;;;;;;4.82;57.33;98754.88;2617701;47;20073;-65
2022/02/19 05:11:39;;;;;;;9.50;2.40;;;;;;;4.82;57.04;98771.41;2621561;54;20026;-65
2022/02/19 05:14:12;;;;;;;14.10;2.50;;;;;;;4.80;57.29;98775.97;2620930;47;20553;-64
2022/02/19 05:16:42;;;;;;;10.80;2.08;;;;;;;4.80;57.30;98785.63;2615741;47;20038;-66
2022/02/19 05:19:14;;;;;;;8.57;1.75;;;;;;;4.75;57.27;98782.66;2616944;47;20031;-66
2022/02/19 05:21:44;;;;;;;10.13;2.58;;;;;;;4.79;57.59;98784.00;2617171;47;20050;-66
2022/02/19 05:24:16;;;;;;;11.25;2.47;;;;;;;4.77;57.43;98789.38;2616552;54;20603;-66
2022/02/19 05:26:54;;;;;;;13.13;2.28;;;;;;;4.75;57.76;98801.00;2616733;50;20049;-66
2022/02/19 05:29:26;;;;;;;13.68;2.05;;;;;;;4.79;57.97;98795.28;2616846;47;20080;-66
2022/02/19 05:31:57;;;;;;;11.93;2.58;;;;;;;4.84;57.74;98806.09;2616758;54;20049;-66
2022/02/19 05:34:33;;;;;;;13.25;2.78;;;;;;;4.86;57.93;98800.72;2616064;54;20026;-65
2022/02/19 05:37:06;;;;;;;12.88;2.47;;;;;;;4.87;57.89;98816.28;2617022;54;20166;-65
2022/02/19 05:39:43;;;;;;;10.30;2.72;;;;;;;4.82;57.66;98809.88;2617285;39;20417;-65
2022/02/19 05:42:18;;;;;;;11.75;2.22;;;;;;;4.87;58.15;98813.66;2616773;54;20026;-65
2022/02/19 05:44:53;;;;;;;7.22;2.13;;;;;;;4.87;57.94;98821.50;2616495;54;20071;-66
2022/02/19 05:47:24;;;;;;;14.63;2.22;;;;;;;4.88;58.02;98819.72;2616813;54;20031;-67
2022/02/19 05:50:23;;;;;;;13.20;3.05;;;;;;;4.88;57.81;98831.00;2617147;54;20599;-66
2022/02/19 05:53:01;;;;;;;8.23;2.20;;;;;;;4.87;57.86;98824.13;2617392;39;20445;-67
2022/02/19 05:55:37;;;;;;;7.70;2.15;;;;;;;4.87;57.72;98829.38;2617296;54;20029;-66
2022/02/19 05:58:11;;;;;;;10.30;2.38;;;;;;;4.86;57.60;98840.03;2617693;54;20035;-66
2022/02/19 06:00:51;;;;;;;8.65;1.63;;;;;;;4.82;57.98;98849.97;2617590;54;20034;-66
2022/02/19 06:03:21;;;;;;;10.82;2.42;;;;;;;4.81;57.96;98845.69;2618644;47;20125;-67
2022/02/19 06:05:50;;;;;;;12.32;2.40;;;;;;;4.80;58.17;98853.72;2621443;54;20022;-67
2022/02/19 06:08:22;;;;;;;5.25;2.00;;;;;;;4.81;58.19;98864.03;2621510;54;20050;-66
2022/02/19 06:10:52;;;;;;;7.93;2.00;;;;;;;4.79;58.19;98863.38;2621376;47;20046;-68
2022/02/19 06:13:27;;;;;;;11.68;2.40;;;;;;;4.85;58.07;98873.22;2621710;46;20089;-67
2022/02/19 06:15:58;;;;;;;13.10;2.45;;;;;;;4.92;57.88;98868.19;2623762;31;20531;-67
2022/02/19 06:18:33;;;;;;;10.02;2.50;;;;;;;4.86;58.05;98887.16;2622197;54;20069;-67
2022/02/19 06:21:02;;;;;;;12.20;2.47;;;;;;;4.82;58.27;98891.06;2621547;54;20034;-66
2022/02/19 06:23:38;;;;;;;13.70;2.97;;;;;;;4.83;58.01;98898.75;2617589;47;20042;-67
2022/02/19 06:26:08;;;;;;;11.35;2.10;;;;;;;4.84;57.95;98904.81;2617396;54;20039;-67
2022/02/19 06:28:56;;;;;;;8.48;2.35;;;;;;;4.88;58.17;98914.00;2617734;54;20057;-67
2022/02/19 06:31:26;;;;;;;10.07;2.40;;;;;;;4.92;57.74;98913.56;2617426;54;20030;-67
2022/02/19 06:33:56;;;;;;;11.98;2.05;;;;;;;4.93;57.81;98924.84;2617214;54;20061;-67
2022/02/19 06:36:26;;;;;;;12.40;2.17;;;;;;;4.91;57.53;98927.63;2617544;54;20035;-66
2022/02/19 06:38:56;;;;;;;8.60;2.03;;;;;;;4.85;57.62;98935.28;2617448;54;20033;-67
2022/02/19 06:41:31;;;;;;;9.45;2.70;;;;;;;4.83;57.52;98938.06;2617755;46;20041;-67
2022/02/19 06:44:14;;;;;;;8.70;1.90;;;;;;;4.81;57.54;98952.25;2617232;51;20035;-67
2022/02/19 06:46:47;;;;;;;9.60;2.13;;;;;;;4.83;57.42;98952.94;2617846;54;20038;-68
2022/02/19 06:49:17;;;;;;;9.98;2.40;;;;;;;4.85;57.61;98954.41;2617667;54;20542;-68
2022/02/19 06:51:51;;;;;;;10.87;2.67;;;;;;;4.86;57.17;98961.34;2617618;54;20568;-70
2022/02/19 06:54:20;;;;;;;13.45;2.72;;;;;;;4.85;57.12;98972.75;2617198;47;20379;-68
2022/02/19 06:56:52;;;;;;;13.85;3.28;;;;;;;4.86;57.28;98973.59;2617840;39;20136;-65
2022/02/19 06:59:25;;;;;;;11.50;2.45;;;;;;;4.86;56.96;98978.84;2617907;39;20434;-65
2022/02/19 07:01:56;;;;;;;11.63;2.60;;;;;;;4.88;56.77;98988.19;2617842;39;20441;-67
2022/02/19 07:04:28;;;;;;;11.43;2.75;;;;;;;4.85;57.33;98988.47;2617129;47;20027;-67
2022/02/19 07:07:17;;;;;;;5.75;2.20;;;;;;;4.92;57.17;98994.75;2618208;54;20053;-67
2022/02/19 07:09:47;;;;;;;9.88;2.10;;;;;;;4.96;57.34;98996.09;2617288;47;20049;-67
2022/02/19 07:12:16;;;;;;;8.93;2.25;;;;;;;5.00;57.08;99001.03;2617700;46;20027;-67
2022/02/19 07:14:49;;;;;;;13.82;3.28;;;;;;;4.97;56.78;99005.59;2617239;47;20599;-67
2022/02/19 07:17:29;;;;;;;12.25;2.38;;;;;;;4.99;56.42;99013.31;2617153;54;20026;-68
2022/02/19 07:19:59;;;;;;;8.45;2.42;;;;;;;4.99;56.27;99008.09;2617382;54;20026;-71
2022/02/19 07:22:29;;;;;;;10.07;2.65;;;;;;;4.97;56.12;99007.41;2617616;54;20033;-66
2022/02/19 07:24:59;;;;;;;17.45;3.58;;;;;;;4.95;56.76;99027.72;2616924;54;20073;-66
2022/02/19 07:27:38;;;;;;;8.68;2.40;;;;;;;5.01;56.50;99018.41;2617746;39;20448;-68
2022/02/19 07:30:13;;;;;;;14.23;3.30;;;;;;;5.03;56.84;99024.34;2617515;47;20037;-68
2022/02/19 07:32:44;;;;;;;11.13;2.60;;;;;;;5.08;56.60;99020.28;2617327;47;20018;-67
2022/02/19 07:35:28;;;;;;;10.40;2.08;;;;;;;5.06;56.97;99030.09;2617202;54;20041;-69
2022/02/19 07:37:58;;;;;;;10.82;2.67;;;;;;;5.09;56.26;99026.34;2617340;54;20026;-67
2022/02/19 07:40:28;;;;;;;9.32;2.45;;;;;;;5.11;56.46;99030.47;2617227;54;20564;-68
2022/02/19 07:42:59;;;;;;;6.95;2.30;;;;;;;5.06;56.41;99024.00;2617342;54;20077;-67
2022/02/19 07:45:58;;;;;;;14.18;2.55;;;;;;;5.07;56.68;99039.59;2617684;47;20061;-68
2022/02/19 07:48:46;;;;;;;11.23;2.50;;;;;;;5.03;56.65;99038.25;2617865;54;20034;-67
2022/02/19 08:00:13;;;;;;;10.55;2.35;;;;;;;5.12;56.42;99042.56;2617215;54;20033;-67
2022/02/19 08:02:53;;;;;;;9.43;2.47;;;;;;;5.20;56.50;99047.88;2617161;54;20034;-67
2022/02/19 08:05:22;;;;;;;6.20;2.67;;;;;;;5.27;56.59;99040.25;2616995;54;20018;-68
2022/02/19 08:07:53;;;;;;;10.43;3.00;;;;;;;5.45;56.36;99053.31;2617154;54;20065;-68
2022/02/19 08:10:23;;;;;;;9.30;2.50;;;;;;;5.44;55.91;99049.03;2617070;54;20054;-67
2022/02/19 08:12:53;;;;;;;10.88;2.70;;;;;;;5.44;56.63;99055.09;2617665;54;20023;-67
2022/02/19 08:15:22;;;;;;;21.08;5.18;;;;;;;5.58;56.30;99052.88;2616982;54;20031;-67
2022/02/19 08:17:55;;;;;;;10.98;3.70;;;;;;;5.60;55.80;99054.38;2617424;54;20030;-68
2022/02/19 08:20:27;;;;;;;12.98;3.58;;;;;;;5.64;55.61;99050.47;2617670;54;20525;-68
2022/02/19 08:22:59;;;;;;;8.02;2.80;;;;;;;5.71;56.14;99051.50;2616985;47;20027;-68
2022/02/19 08:25:29;;;;;;;11.05;3.13;;;;;;;5.65;55.41;99054.75;2617567;54;20545;-68
2022/02/19 08:27:59;;;;;;;14.02;3.85;;;;;;;5.59;55.79;99060.63;2617486;54;20026;-66
2022/02/19 08:30:31;;;;;;;13.20;4.10;;;;;;;5.63;55.85;99067.19;2617727;54;20054;-67
2022/02/19 08:33:04;;;;;;;12.70;4.05;;;;;;;5.74;55.81;99071.34;2617308;39;20442;-68
2022/02/19 08:35:35;;;;;;;14.45;4.70;;;;;;;5.81;55.49;99085.50;2617439;39;20677;-68
2022/02/19 08:38:05;;;;;;;14.50;3.33;;;;;;;5.74;55.38;99089.72;2617003;47;20041;-68
2022/02/19 08:40:36;;;;;;;11.45;3.03;;;;;;;5.75;55.49;99091.34;2617748;54;20042;-66
2022/02/19 08:43:06;;;;;;;7.95;2.83;;;;;;;5.71;55.41;99103.13;2617116;47;20026;-67
2022/02/19 08:45:38;;;;;;;7.90;2.60;;;;;;;5.84;55.44;99113.25;2616771;47;20026;-69
2022/02/19 08:48:11;;;;;;;9.90;2.72;;;;;;;5.83;55.47;99116.81;2617837;54;20089;-67
2022/02/19 08:50:42;;;;;;;13.43;3.75;;;;;;;5.86;55.44;99119.13;2617723;54;20038;-69
2022/02/19 08:53:13;;;;;;;9.15;2.80;;;;;;;5.86;55.39;99119.13;2617678;54;20030;-67
2022/02/19 08:55:43;;;;;;;8.68;3.17;;;;;;;5.76;55.15;99126.31;2617317;54;20034;-68
2022/02/19 08:58:18;;;;;;;14.30;4.22;;;;;;;5.79;55.75;99131.22;2617442;54;20588;-68
2022/02/19 09:00:49;;;;;;;11.88;4.28;;;;;;;5.77;55.48;99126.13;2617998;39;20490;-67
2022/02/19 09:03:21;;;;;;;11.90;3.83;;;;;;;5.83;55.29;99135.19;2616797;47;20026;-68
2022/02/19 09:05:51;;;;;;;14.38;4.15;;;;;;;5.87;55.47;99136.53;2616710;47;20042;-67
2022/02/19 09:08:21;;;;;;;10.55;5.15;;;;;;;5.78;55.74;99133.03;2616766;51;20030;-68
2022/02/19 09:10:51;;;;;;;11.10;3.88;;;;;;;5.82;55.51;99129.13;2617044;47;20038;-67
2022/02/19 09:13:20;;;;;;;11.55;3.38;;;;;;;5.84;55.46;99142.09;2617748;54;20550;-67
2022/02/19 09:15:50;;;;;;;16.45;3.75;;;;;;;5.75;55.17;99149.06;2617055;47;20071;-68
2022/02/19 09:18:23;;;;;;;13.43;3.80;;;;;;;5.80;55.69;99144.19;2617970;39;20422;-67
2022/02/19 09:20:52;;;;;;;14.15;3.17;;;;;;;6.05;55.55;99139.13;2617732;54;20027;-67
2022/02/19 09:23:22;;;;;;;11.90;3.58;;;;;;;6.16;55.33;99152.81;2617571;54;20055;-66
2022/02/19 09:25:52;;;;;;;12.82;4.05;;;;;;;6.29;55.59;99143.69;2617460;54;20038;-67
2022/02/19 09:28:24;;;;;;;12.48;3.85;;;;;;;6.42;54.92;99147.53;2617295;47;20041;-67
2022/02/19 09:30:54;;;;;;;13.85;3.60;;;;;;;6.44;55.02;99149.97;2617783;47;20129;-68
2022/02/19 09:33:26;;;;;;;14.30;3.90;;;;;;;6.43;54.68;99156.22;2618331;54;20077;-68
2022/02/19 09:35:56;;;;;;;10.52;2.90;;;;;;;6.63;54.41;99147.13;2618747;39;20465;-66
2022/02/19 09:38:25;;;;;;;11.95;3.40;;;;;;;6.73;54.54;99148.78;2618505;54;20030;-66
2022/02/19 09:40:57;;;;;;;10.98;3.38;;;;;;;6.76;54.19;99156.34;2619146;54;20549;-67
2022/02/19 09:43:27;;;;;;;13.73;3.45;;;;;;;6.61;53.97;99156.13;2622394;54;20042;-67
2022/02/19 09:45:57;;;;;;;14.75;2.90;;;;;;;6.55;53.93;99157.59;2624779;54;20042;-67
2022/02/19 09:48:29;;;;;;;10.23;2.88;;;;;;;6.45;54.29;99155.09;2623903;47;20030;-66
2022/02/19 09:50:59;;;;;;;15.40;3.60;;;;;;;6.38;54.38;99159.31;2624140;54;20038;-67
2022/02/19 09:53:30;;;;;;;8.63;2.50;;;;;;;6.27;54.74;99156.16;2624111;54;20046;-67
2022/02/19 09:56:00;;;;;;;8.30;2.78;;;;;;;6.30;55.20;99150.59;2623111;51;20121;-68
2022/02/19 09:58:31;;;;;;;8.75;2.20;;;;;;;6.35;55.28;99151.75;2621549;47;20026;-69
2022/02/19 10:01:17;;;;;;;10.65;2.92;;;;;;;6.39;54.92;99163.59;2625225;54;20026;-67
2022/02/19 10:03:57;;;;;;;8.13;2.40;;;;;;;6.54;55.18;99160.38;2624189;54;20035;-66
2022/02/19 10:06:30;;;;;;;16.40;3.20;;;;;;;6.58;54.37;99159.09;2619971;54;20584;-67
2022/02/19 10:09:15;;;;;;;11.40;3.15;;;;;;;6.64;54.53;99154.00;2617947;54;20034;-68
2022/02/19 10:11:46;;;;;;;13.20;2.95;;;;;;;6.67;53.78;99163.38;2618391;54;20649;-67
2022/02/19 10:14:24;;;;;;;14.00;2.88;;;;;;;6.68;53.99;99157.16;2617706;47;20035;-68
2022/02/19 10:17:11;;;;;;;11.07;2.35;;;;;;;6.71;54.14;99159.47;2618123;54;20069;-68
2022/02/19 10:19:55;;;;;;;16.73;3.35;;;;;;;6.89;53.74;99154.09;2618177;54;20030;-69
2022/02/19 10:22:27;;;;;;;15.70;2.85;;;;;;;6.89;53.72;99157.53;2618312;54;20030;-68
2022/02/19 10:24:58;;;;;;;10.30;2.90;;;;;;;6.82;53.38;99161.81;2618616;39;20437;-69
2022/02/19 10:27:42;;;;;;;9.50;3.13;;;;;;;6.91;53.77;99170.53;2618551;54;20564;-68
2022/02/19 10:30:12;;;;;;;12.98;2.85;;;;;;;6.85;53.16;99176.41;2618349;54;20038;-67
2022/02/19 10:32:52;;;;;;;14.20;2.85;;;;;;;6.85;53.42;99171.97;2618344;54;20037;-68
2022/02/19 10:35:32;;;;;;;10.70;2.17;;;;;;;6.89;54.08;99169.84;2617724;47;20045;-66
2022/02/19 10:38:04;;;;;;;10.65;2.38;;;;;;;6.86;53.60;99171.00;2618287;54;20034;-68
2022/02/19 10:40:40;;;;;;;12.57;3.42;;;;;;;6.92;53.30;99174.78;2618444;54;20046;-68
2022/02/19 10:43:16;;;;;;;8.73;2.83;;;;;;;6.88;53.67;99176.09;2618217;54;20030;-68
2022/02/19 10:45:57;;;;;;;8.77;2.05;;;;;;;6.81;54.20;99180.34;2618046;54;20092;-68
2022/02/19 10:48:28;;;;;;;8.80;2.50;;;;;;;6.85;54.08;99185.13;2618147;54;20581;-67
2022/02/19 10:51:12;;;;;;;9.10;2.50;;;;;;;6.92;53.70;99167.72;2618527;54;20034;-67
2022/02/19 10:53:45;;;;;;;7.78;2.53;;;;;;;7.06;53.50;99170.72;2622244;54;20558;-67
2022/02/19 10:56:16;;;;;;;11.63;2.92;;;;;;;7.12;52.67;99176.16;2622484;54;20038;-67
2022/02/19 10:59:00;;;;;;;7.60;2.78;;;;;;;7.10;52.60;99169.41;2621561;54;20038;-69
2022/02/19 11:01:31;;;;;;;9.02;3.20;;;;;;;7.11;52.46;99165.81;2621940;54;20027;-69
2022/02/19 11:04:03;;;;;;;11.75;3.00;;;;;;;7.29;52.73;99166.50;2622587;54;20066;-69
2022/02/19 11:06:36;;;;;;;13.18;3.33;;;;;;;7.48;52.35;99159.28;2622695;54;20034;-67
2022/02/19 11:09:07;;;;;;;10.27;2.50;;;;;;;7.65;51.65;99166.19;2621226;54;20057;-70
2022/02/19 11:11:39;;;;;;;13.27;3.53;;;;;;;7.69;51.46;99173.59;2621724;54;20038;-69
2022/02/19 11:14:10;;;;;;;7.97;2.80;;;;;;;7.68;51.34;99163.22;2621048;54;20034;-69
2022/02/19 11:16:40;;;;;;;7.82;2.53;;;;;;;7.63;50.44;99163.72;2618576;49;20042;-65
2022/02/19 11:19:14;;;;;;;10.23;2.63;;;;;;;7.55;50.68;99165.50;2618482;54;20051;-64
2022/02/19 11:21:48;;;;;;;9.35;2.38;;;;;;;7.68;51.05;99153.53;2618500;51;20057;-67
2022/02/19 11:24:19;;;;;;;12.10;3.50;;;;;;;7.72;50.82;99155.84;2618108;47;20130;-64
2022/02/19 11:26:50;;;;;;;13.80;4.20;;;;;;;7.81;50.85;99160.91;2618772;54;20061;-65
2022/02/19 11:29:24;;;;;;;16.45;3.78;;;;;;;7.89;50.14;99149.56;2619270;39;20421;-65
2022/02/19 11:31:55;;;;;;;13.30;3.55;;;;;;;7.85;50.43;99145.63;2618497;47;20042;-64
2022/02/19 11:34:26;;;;;;;11.05;3.25;;;;;;;7.91;50.41;99140.50;2618468;54;20074;-64
2022/02/19 11:37:15;;;;;;;9.82;2.60;;;;;;;8.06;50.56;99137.19;2618533;54;20034;-64
2022/02/19 11:40:02;;;;;;;10.32;2.20;;;;;;;7.93;49.10;99128.00;2619039;54;20040;-63
2022/02/19 11:42:49;;;;;;;11.05;2.20;;;;;;;7.67;48.70;99136.09;2619198;54;20030;-64
2022/02/19 11:45:24;;;;;;;6.95;2.22;;;;;;;7.76;48.99;99126.38;2618660;47;20038;-64
2022/02/19 11:47:56;;;;;;;10.43;2.55;;;;;;;7.80;47.91;99134.78;2618292;47;20034;-64
2022/02/19 11:50:28;;;;;;;8.82;1.80;;;;;;;7.74;47.96;99120.44;2618443;47;20518;-64
2022/02/19 11:53:31;;;;;;;10.68;2.05;;;;;;;7.68;48.00;99129.84;2618597;46;20038;-62
2022/02/19 11:56:02;;;;;;;8.65;2.03;;;;;;;7.58;48.51;99121.28;2618363;54;20034;-66
2022/02/19 11:58:32;;;;;;;9.23;1.98;;;;;;;7.47;48.79;99112.91;2618584;54;20030;-71
2022/02/19 12:01:12;;;;;;;9.13;2.60;;;;;;;7.52;49.12;99097.47;2618900;54;20038;-64
2022/02/19 12:03:41;;;;;;;9.90;2.65;;;;;;;7.91;49.19;99093.09;2618703;54;20033;-63
2022/02/19 12:06:18;;;;;;;12.82;2.55;;;;;;;8.13;48.43;99081.06;2618796;54;20077;-63
2022/02/19 12:09:21;;;;;;;9.95;2.17;;;;;;;7.99;47.66;99073.03;2618670;54;20019;-65
2022/02/19 12:12:08;;;;;;;6.35;2.00;;;;;;;8.03;47.92;99048.00;2620335;54;20031;-63
2022/02/19 12:14:57;;;;;;;12.07;2.97;;;;;;;8.19;47.74;99056.66;2620896;54;20045;-63